Time;durP1;ratioP1;P1;durP2;ratioP2;P2;SDS_P1;SDS_P2;PMS_P1;PMS_P2;Temp;Humidity;BMP_temperature;BMP_pressure;BME280_temperature;BME280_humidity;BME280_pressure;Samples;Min_cycle;Max_cycle;Signal;HPM_P1;HPM_P2
2022/12/17 13:06:37;;;;;;;;;0.00;0.00;;;;;-149.69;14.28;50070.16;5006284;28;29113;-89
2022/12/17 13:09:24;;;;;;;;;0.00;0.00;;;;;-149.69;14.75;49731.44;5008245;28;28770;-89
2022/12/17 13:12:15;;;;;;;;;16.00;16.00;;;;;-149.69;14.10;49779.00;5006805;28;28600;-89
2022/12/17 13:14:52;;;;;;;;;0.00;0.00;;;;;-149.69;13.95;49878.03;5006557;28;28688;-90
2022/12/17 13:17:33;;;;;;;;;0.67;0.67;;;;;-149.69;13.74;49897.81;5048210;28;28578;-89
2022/12/17 13:20:20;;;;;;;;;0.00;0.00;;;;;-149.69;13.66;49693.81;5069477;28;28501;-88
2022/12/17 13:22:52;;;;;;;;;0.00;0.00;;;;;-149.69;13.76;49741.34;5060307;28;28627;-88
2022/12/17 13:25:21;;;;;;;;;0.00;0.00;;;;;-149.69;14.21;49769.09;5068637;28;28473;-89
2022/12/17 13:27:47;;;;;;;;;12.00;12.00;;;;;-149.69;13.97;49616.59;5069469;28;28360;-89
2022/12/17 13:30:16;;;;;;;;;0.00;0.00;;;;;-149.69;15.08;49763.16;5070129;28;28596;-89
2022/12/17 13:32:46;;;;;;;;;0.00;0.00;;;;;-149.69;14.76;49551.22;5068632;28;30189;-88
2022/12/17 13:35:23;;;;;;;;;2.67;2.67;;;;;-149.69;14.12;49697.78;5069444;28;28737;-89
2022/12/17 13:37:58;;;;;;;;;0.00;0.00;;;;;-149.69;14.37;49608.66;5068395;28;28482;-89
2022/12/17 13:40:33;;;;;;;;;0.00;0.00;;;;;-149.69;14.08;49662.13;5063676;28;28472;-88
2022/12/17 13:42:58;;;;;;;;;3.00;3.00;;;;;-149.69;14.30;49699.75;5067680;28;29606;-89
2022/12/17 13:45:25;;;;;;;;;0.00;0.00;;;;;-149.69;14.60;49622.53;5068731;28;28545;-89
2022/12/17 13:47:53;;;;;;;;;1.00;1.00;;;;;-149.69;14.97;49551.22;5067240;28;28435;-89
2022/12/17 13:50:26;;;;;;;;;0.00;0.00;;;;;-149.69;14.91;49551.22;5085909;28;28465;-89
2022/12/17 13:52:51;;;;;;;;;8.50;8.50;;;;;-149.69;15.12;49557.16;5066130;28;30087;-89
2022/12/17 13:55:20;;;;;;;;;0.00;0.00;;;;;-149.69;15.46;49679.97;5069101;28;28523;-90
2022/12/17 13:57:46;;;;;;;;;0.00;0.00;;;;;-149.69;14.17;49578.94;5068304;28;28530;-89
2022/12/17 14:00:21;;;;;;;;;0.00;0.00;;;;;-149.69;14.50;49650.25;5068768;28;29203;-88
2022/12/17 14:02:47;;;;;;;;;0.00;0.00;;;;;-149.69;14.30;49588.84;5068808;28;29388;-89
2022/12/17 14:05:36;;;;;;;;;0.00;0.00;;;;;-149.69;14.04;49767.09;5067673;28;28795;-90
2022/12/17 14:08:04;;;;;;;;;0.00;0.00;;;;;-149.69;13.89;49677.97;5068061;28;28673;-88
2022/12/17 14:10:30;;;;;;;;;0.00;0.00;;;;;-149.69;14.33;49594.78;5069242;28;28364;-89
2022/12/17 14:13:15;;;;;;;;;0.00;0.00;;;;;-149.69;14.83;49602.72;5069440;28;28478;-88
2022/12/17 14:15:47;;;;;;;;;0.00;0.00;;;;;-149.69;13.64;50379.16;5069703;28;28502;-88
2022/12/17 14:18:17;;;;;;;;;0.00;0.00;;;;;-149.69;11.03;50706.00;5068567;28;28486;-88
2022/12/17 14:20:43;;;;;;;;;0.00;0.00;;;;;-149.69;11.68;49921.59;5067732;28;28502;-88
2022/12/17 14:23:25;;;;;;;;;0.00;0.00;;;;;-149.69;12.57;49893.88;5061168;28;29903;-88
2022/12/17 14:25:51;;;;;;;;;1.00;1.00;;;;;-149.69;12.32;49907.72;5083224;27;28625;-88
2022/12/17 14:28:23;;;;;;;;;0.00;0.00;;;;;-149.69;12.73;49810.69;5067149;28;28589;-88
2022/12/17 14:30:50;;;;;;;;;0.00;0.00;;;;;-149.69;13.22;49779.00;5082621;28;28798;-88
2022/12/17 14:33:42;;;;;;;;;3.00;3.00;;;;;-149.69;13.57;49751.25;5069031;28;28945;-88
2022/12/17 14:36:20;;;;;;;;;1.00;1.00;;;;;-149.69;13.19;49672.03;5064836;28;28584;-88
2022/12/17 14:38:54;;;;;;;;;0.00;0.00;;;;;-149.69;13.31;49701.75;5067197;28;28450;-88
2022/12/17 14:44:04;;;;;;;;;0.00;0.00;;;;;-149.69;13.88;49727.50;5066431;28;28858;-88
2022/12/17 14:46:32;;;;;;;;;0.00;0.00;;;;;-149.69;13.36;49792.84;5064156;28;29284;-89
2022/12/17 14:49:01;;;;;;;;;0.00;0.00;;;;;-149.69;13.35;49790.88;5061867;28;28542;-89
2022/12/17 14:51:34;;;;;;;;;0.00;0.00;;;;;-149.69;13.11;49862.16;5059593;28;28832;-88
2022/12/17 14:54:06;;;;;;;;;0.00;0.00;;;;;-149.69;12.77;49872.06;5068992;28;30000;-89
2022/12/17 14:56:31;;;;;;;;;0.00;0.00;;;;;-149.69;12.65;49913.66;5067753;28;28523;-89
2022/12/17 14:58:57;;;;;;;;;0.00;0.00;;;;;-149.69;12.63;49822.56;5064247;28;28761;-89
2022/12/17 15:01:22;;;;;;;;;0.00;0.00;;;;;-149.69;13.10;49737.41;5065331;28;28746;-89
2022/12/17 15:03:47;;;;;;;;;0.00;0.00;;;;;-149.69;12.96;49818.59;5068119;28;28655;-90
2022/12/17 15:06:18;;;;;;;;;0.00;0.00;;;;;-149.69;13.12;49933.47;5065594;28;29282;-90
2022/12/17 15:08:46;;;;;;;;;0.00;0.00;;;;;-149.69;12.60;49998.84;5068015;28;28519;-90
2022/12/17 15:11:14;;;;;;;;;0.00;0.00;;;;;-149.69;12.13;49963.19;5063558;28;28723;-89
2022/12/17 15:13:40;;;;;;;;;0.00;0.00;;;;;-149.69;12.01;49943.38;5063516;28;28553;-89
2022/12/17 15:16:06;;;;;;;;;0.00;0.00;;;;;-149.69;12.39;49921.59;5063876;28;28731;-89
2022/12/17 15:18:31;;;;;;;;;0.00;0.00;;;;;-149.69;12.29;49925.56;5063906;28;28604;-89
2022/12/17 15:20:56;;;;;;;;;16.00;16.00;;;;;-149.69;12.41;49824.53;5051801;28;29790;-89
2022/12/17 15:23:22;;;;;;;;;0.00;0.00;;;;;-149.69;12.49;49899.81;5061290;28;29579;-89
2022/12/17 15:25:50;;;;;;;;;0.00;0.00;;;;;-149.69;12.79;49749.28;5061545;28;28384;-89
2022/12/17 15:28:17;;;;;;;;;0.00;0.00;;;;;-149.69;12.84;49874.06;5063465;28;28598;-88
2022/12/17 15:30:42;;;;;;;;;0.00;0.00;;;;;-149.69;12.41;49792.84;5064815;28;28633;-93
2022/12/17 15:33:09;;;;;;;;;0.00;0.00;;;;;-149.69;13.39;49844.34;5062822;28;29025;-90
2022/12/17 15:35:35;;;;;;;;;0.00;0.00;;;;;-149.69;12.88;49804.72;5060596;28;29069;-91
2022/12/17 15:38:01;;;;;;;;;0.33;0.33;;;;;-149.69;12.47;49806.72;5060345;28;28628;-89
2022/12/17 15:40:26;;;;;;;;;0.00;0.00;;;;;-149.69;13.31;49679.97;5067944;28;28574;-89
2022/12/17 15:43:10;;;;;;;;;1.00;1.00;;;;;-149.69;13.29;49701.75;5067480;28;29675;-89
2022/12/17 15:45:43;;;;;;;;;0.00;0.00;;;;;-149.69;12.92;49782.94;5067925;28;28684;-90
2022/12/17 15:48:14;;;;;;;;;0.00;0.00;;;;;-149.69;13.13;49705.72;5070639;28;28446;-90
2022/12/17 15:50:40;;;;;;;;;0.00;0.00;;;;;-149.69;13.29;49616.59;5071447;28;28418;-89
2022/12/17 15:53:05;;;;;;;;;0.00;0.00;;;;;-149.69;13.20;49677.97;5068248;28;28550;-89
2022/12/17 15:55:31;;;;;;;;;0.00;0.00;;;;;-149.69;13.14;49602.72;5063747;28;28594;-88
2022/12/17 15:57:56;;;;;;;;;0.00;0.00;;;;;-149.69;13.16;49681.94;5069862;28;28530;-89
2022/12/17 16:00:23;;;;;;;;;7.00;7.00;;;;;-149.69;12.92;49703.72;5069601;28;28576;-88
2022/12/17 16:02:49;;;;;;;;;0.00;0.00;;;;;-149.69;13.03;49790.88;5067765;28;29238;-89
2022/12/17 16:05:15;;;;;;;;;0.00;0.00;;;;;-149.69;12.95;49699.75;5068122;28;29459;-89
2022/12/17 16:07:42;;;;;;;;;0.00;0.00;;;;;-149.69;13.01;49753.25;5061483;28;28543;-89
2022/12/17 16:10:09;;;;;;;;;3.00;3.00;;;;;-149.69;13.21;49662.13;5068129;28;28711;-89
2022/12/17 16:12:34;;;;;;;;;0.00;0.00;;;;;-149.69;13.14;49618.56;5063234;28;30977;-89
2022/12/17 16:14:59;;;;;;;;;0.00;0.00;;;;;-149.69;13.02;49713.63;5070707;28;29482;-91
2022/12/17 16:17:25;;;;;;;;;6.00;6.00;;;;;-149.69;13.02;49654.22;5071412;28;28615;-89
2022/12/17 16:19:50;;;;;;;;;0.00;0.00;;;;;-149.69;13.03;49854.25;5070197;28;28700;-88
2022/12/17 16:22:16;;;;;;;;;0.00;0.00;;;;;-149.69;13.07;49677.97;5065700;28;28492;-90
2022/12/17 16:24:41;;;;;;;;;0.00;0.00;;;;;-149.69;12.53;49796.81;5070424;28;28589;-90
2022/12/17 16:27:07;;;;;;;;;0.00;0.00;;;;;-149.69;12.45;49804.72;5069601;28;28458;-89
2022/12/17 16:29:32;;;;;;;;;0.00;0.00;;;;;-149.69;12.43;49891.88;5070241;28;28962;-89
2022/12/17 16:31:59;;;;;;;;;0.00;0.00;;;;;-149.69;12.89;49666.09;5069292;28;28523;-89
2022/12/17 16:34:24;;;;;;;;;7.00;7.00;;;;;-149.69;13.00;49612.63;5069589;28;28532;-90
2022/12/17 16:36:49;;;;;;;;;0.00;0.00;;;;;-149.69;12.89;49576.97;5070453;28;28455;-90
2022/12/17 16:39:17;;;;;;;;;0.33;0.33;;;;;-149.69;12.73;49741.34;5068001;28;28591;-89
2022/12/17 16:41:43;;;;;;;;;0.00;0.00;;;;;-149.69;12.36;49782.94;5064003;28;28724;-90
2022/12/17 16:44:08;;;;;;;;;21.50;21.50;;;;;-149.69;12.13;49820.56;5067689;28;28582;-88
2022/12/17 16:46:38;;;;;;;;;4.67;4.67;;;;;-149.69;12.29;49779.00;5067366;28;28601;-90
2022/12/17 16:49:12;;;;;;;;;0.00;0.00;;;;;-149.69;12.41;49769.09;5057349;28;28578;-89
2022/12/17 16:51:39;;;;;;;;;1.00;1.00;;;;;-149.69;12.83;49551.22;5066394;28;30841;-90
2022/12/17 16:54:06;;;;;;;;;0.33;0.33;;;;;-149.69;12.84;49784.94;5068468;28;28585;-89
2022/12/17 16:56:31;;;;;;;;;0.00;0.00;;;;;-149.69;11.84;49775.03;5069765;28;28479;-90
2022/12/17 16:58:57;;;;;;;;;6.00;4.00;;;;;-149.69;12.81;49612.63;5070532;28;27927;-90
2022/12/17 17:01:27;;;;;;;;;6.67;6.67;;;;;-149.69;12.10;49923.56;5069484;28;28497;-89
2022/12/17 17:03:52;;;;;;;;;10.00;10.00;;;;;-149.69;12.28;49769.09;5069225;28;28743;-89
2022/12/17 17:06:18;;;;;;;;;2.67;2.67;;;;;-149.69;12.77;49588.84;5068377;28;28586;-89
2022/12/17 17:08:44;;;;;;;;;0.00;0.00;;;;;-149.69;13.33;49642.31;5073603;28;30156;-90
2022/12/17 17:11:14;;;;;;;;;0.00;0.00;;;;;-149.69;13.64;49701.75;5067345;28;28534;-90
2022/12/17 17:13:40;;;;;;;;;0.00;0.00;;;;;-149.69;13.31;49567.06;5068997;28;28552;-89
2022/12/17 17:16:08;;;;;;;;;19.50;19.50;;;;;-149.69;13.60;49515.56;5067568;28;28550;-89
2022/12/17 17:18:35;;;;;;;;;1.00;1.00;;;;;-149.69;13.32;49537.34;5069602;28;28004;-88
2022/12/17 17:21:18;;;;;;;;;7.00;7.00;;;;;-149.69;13.43;49555.19;5069025;28;28545;-86
2022/12/17 17:23:49;;;;;;;;;1.00;1.00;;;;;-149.69;13.05;49608.66;5067925;28;28490;-86
2022/12/17 17:26:14;;;;;;;;;0.00;0.00;;;;;-149.69;12.33;49775.03;5064674;28;29692;-86
2022/12/17 17:28:40;;;;;;;;;0.00;0.00;;;;;-149.69;13.14;49539.34;5066978;28;28324;-88
2022/12/17 17:31:10;;;;;;;;;0.00;0.00;;;;;-149.69;13.39;49539.34;5061658;28;31081;-87
2022/12/17 17:33:38;;;;;;;;;0.00;0.00;;;;;-149.69;13.05;49578.94;5068945;28;28538;-87
2022/12/17 17:36:04;;;;;;;;;6.50;6.50;;;;;-149.69;12.88;49650.25;5067806;28;28578;-87
2022/12/17 17:38:31;;;;;;;;;0.00;0.00;;;;;-149.69;13.35;49551.22;5068177;28;28495;-85
2022/12/17 17:40:57;;;;;;;;;0.00;0.00;;;;;-149.69;12.81;49638.38;5068019;28;29764;-86
2022/12/17 17:43:23;;;;;;;;;1.00;1.00;;;;;-149.69;13.40;49515.56;5061558;28;28553;-86
2022/12/17 17:45:48;;;;;;;;;1.00;1.00;;;;;-149.69;13.61;49557.16;5064554;28;28547;-90
2022/12/17 17:48:13;;;;;;;;;0.00;0.00;;;;;-149.69;13.39;49646.28;5065655;28;28817;-89
2022/12/17 17:50:39;;;;;;;;;0.00;0.00;;;;;-149.69;12.97;49773.03;5065782;28;29780;-90
2022/12/17 17:53:04;;;;;;;;;0.00;0.00;;;;;-149.69;12.49;49711.66;5066774;28;28550;-88
2022/12/17 17:55:33;;;;;;;;;0.00;0.00;;;;;-149.69;13.29;49677.97;5069673;28;28467;-90
2022/12/17 17:57:59;;;;;;;;;0.00;0.00;;;;;-149.69;12.79;49695.81;5068116;28;28507;-89
2022/12/17 18:00:24;;;;;;;;;0.00;0.00;;;;;-149.69;13.43;49683.91;5065358;28;30056;-91
2022/12/17 18:02:49;;;;;;;;;0.00;0.00;;;;;-149.69;13.51;49521.53;5083539;28;28522;-90
2022/12/17 18:05:15;;;;;;;;;0.00;0.00;;;;;-149.69;13.89;49624.50;5065719;28;28405;-90
2022/12/17 18:07:40;;;;;;;;;0.00;0.00;;;;;-149.69;13.14;49630.44;5065401;28;28357;-89
2022/12/17 18:10:06;;;;;;;;;0.00;0.00;;;;;-149.69;13.71;49571.03;5062124;28;29784;-91
2022/12/17 18:15:16;;;;;;;;;3.00;3.00;;;;;-149.69;13.84;49485.88;5069599;28;28573;-90
2022/12/17 18:17:42;;;;;;;;;7.00;4.00;;;;;-149.69;14.07;49477.94;5065938;28;28716;-91
2022/12/17 18:20:08;;;;;;;;;0.00;0.00;;;;;-149.69;14.25;49432.41;5067162;28;28846;-92
2022/12/17 18:22:34;;;;;;;;;1.00;1.00;;;;;-149.69;14.09;49474.00;5067022;28;28631;-91
2022/12/17 18:24:59;;;;;;;;;38.50;34.50;;;;;-149.69;14.14;49448.25;5067538;28;28092;-90
2022/12/17 18:27:24;;;;;;;;;4.00;4.00;;;;;-149.69;13.69;49535.38;5066955;28;31568;-90
2022/12/17 18:29:50;;;;;;;;;18.50;18.25;;;;;-149.69;14.66;49662.13;5065097;28;34022;-92
2022/12/17 18:32:15;;;;;;;;;0.00;0.00;;;;;-149.69;14.30;49487.84;5068683;28;31130;-87
2022/12/17 18:34:40;;;;;;;;;0.00;0.00;;;;;-149.69;13.89;49483.88;5068215;28;28449;-88
2022/12/17 18:37:05;;;;;;;;;0.00;0.00;;;;;-149.69;14.61;49541.31;5066091;28;28518;-87
2022/12/17 18:39:32;;;;;;;;;0.00;0.00;;;;;-149.69;13.60;49630.44;5073649;28;35951;-87
2022/12/17 18:44:41;;;;;;;;;7.50;7.50;;;;;-149.69;12.90;49850.28;5068018;28;28260;-89
2022/12/17 18:47:09;;;;;;;;;0.00;0.00;;;;;-149.69;13.54;49487.84;5069914;28;28526;-88
2022/12/17 18:49:34;;;;;;;;;15.00;15.00;;;;;-149.69;13.33;49527.47;5067224;28;28516;-92
2022/12/17 18:52:00;;;;;;;;;0.00;0.00;;;;;-149.69;14.04;49481.91;5070184;28;27853;-90
2022/12/17 18:54:28;;;;;;;;;7.00;7.00;;;;;-149.69;14.07;49416.56;5075111;28;28265;-90
2022/12/17 18:56:56;;;;;;;;;0.00;0.00;;;;;-149.69;14.17;49418.53;5077562;28;28640;-92
2022/12/17 18:59:24;;;;;;;;;0.00;0.00;;;;;-149.69;14.35;49454.19;5077853;27;29934;-91
2022/12/17 19:01:49;;;;;;;;;0.00;0.00;;;;;-149.69;14.76;49515.56;5059503;28;28609;-92
2022/12/17 19:04:18;;;;;;;;;0.00;0.00;;;;;-149.69;14.33;49553.22;5072659;28;28379;-92
2022/12/17 19:06:44;;;;;;;;;0.00;0.00;;;;;-149.69;14.07;49563.09;5068955;28;27989;-96
2022/12/17 19:09:24;;;;;;;;;10.75;10.75;;;;;-149.69;14.40;49452.19;5068722;28;29822;-96
2022/12/17 19:11:51;;;;;;;;;0.00;0.00;;;;;-149.69;14.33;49499.72;5090443;27;29114;-93
2022/12/17 19:14:17;;;;;;;;;0.33;0.33;;;;;-149.69;14.80;49380.91;5068402;28;28545;-96
2022/12/17 19:16:42;;;;;;;;;3.25;3.25;;;;;-149.69;13.97;49555.19;5077320;28;28266;-88
2022/12/17 19:19:10;;;;;;;;;1.00;1.00;;;;;-149.69;13.94;49549.25;5073659;28;28562;-96
2022/12/17 19:21:36;;;;;;;;;0.67;0.67;;;;;-149.69;14.63;49582.91;5064284;28;28485;-93
2022/12/17 19:24:05;;;;;;;;;9.25;9.25;;;;;-149.69;14.60;49485.88;5070107;28;28854;-95
2022/12/17 19:26:30;;;;;;;;;3.00;3.00;;;;;-149.69;14.35;49374.97;5078263;28;27927;-95
2022/12/17 19:28:58;;;;;;;;;0.00;0.00;;;;;-149.69;14.39;49438.34;5072268;28;29806;-87
2022/12/17 19:31:26;;;;;;;;;0.00;0.00;;;;;-149.69;15.06;49578.94;5069831;28;28610;-88
2022/12/17 19:33:56;;;;;;;;;0.00;0.00;;;;;-149.69;14.14;49432.41;5070150;28;28649;-91
2022/12/17 19:36:30;;;;;;;;;1.00;1.00;;;;;-149.69;14.75;49412.59;5072473;28;28542;-93
2022/12/17 19:38:58;;;;;;;;;0.00;0.00;;;;;-149.69;14.12;49398.72;5069186;28;28503;-89
2022/12/17 19:41:26;;;;;;;;;0.75;0.75;;;;;-149.69;14.89;49394.78;5067826;28;29876;-89
2022/12/17 19:43:54;;;;;;;;;6.00;6.00;;;;;-149.69;14.70;49390.81;5067992;28;28753;-91
2022/12/17 19:46:20;;;;;;;;;0.00;0.00;;;;;-149.69;14.70;49422.50;5068458;28;28451;-94
2022/12/17 19:48:46;;;;;;;;;1.00;1.00;;;;;-149.69;14.72;49422.50;5062509;28;29922;-90
2022/12/17 19:51:14;;;;;;;;;0.00;0.00;;;;;-149.69;14.84;49410.63;5064854;28;28865;-91
2022/12/17 19:53:41;;;;;;;;;0.00;0.00;;;;;-149.69;14.81;49400.72;5067791;28;28525;-92
2022/12/17 19:56:19;;;;;;;;;0.00;0.00;;;;;-149.69;15.00;49363.09;5058820;28;28843;-89
2022/12/17 19:58:51;;;;;;;;;0.00;0.00;;;;;-149.69;14.85;49365.06;5065400;28;30183;-87
2022/12/17 20:01:23;;;;;;;;;0.00;0.00;;;;;-149.69;14.87;49361.09;5067865;28;28514;-90
2022/12/17 20:03:49;;;;;;;;;0.00;0.00;;;;;-149.69;15.41;49325.47;5064194;28;28369;-90
2022/12/17 20:06:16;;;;;;;;;0.00;0.00;;;;;-149.69;15.29;49303.66;5082962;28;28419;-91
2022/12/17 20:08:42;;;;;;;;;0.00;0.00;;;;;-149.69;15.02;49430.41;5065806;28;31024;-92
2022/12/17 20:13:56;;;;;;;;;0.00;0.00;;;;;-149.69;14.67;49392.78;5066263;28;28519;-91
2022/12/17 20:16:21;;;;;;;;;0.00;0.00;;;;;-149.69;14.77;49410.63;5067330;28;28396;-89
2022/12/17 20:18:47;;;;;;;;;3.00;3.00;;;;;-149.69;15.21;49369.03;5064609;28;29687;-89
2022/12/17 20:21:12;;;;;;;;;4.00;4.00;;;;;-149.69;15.24;49388.81;5062801;28;28819;-89
2022/12/17 20:23:37;;;;;;;;;0.00;0.00;;;;;-149.69;15.08;49329.41;5062884;28;28984;-89
2022/12/17 20:26:05;;;;;;;;;0.00;0.00;;;;;-149.69;15.03;49341.28;5067858;28;28486;-92
2022/12/17 20:28:32;;;;;;;;;0.00;0.00;;;;;-149.69;15.16;49335.34;5070647;28;30629;-91
2022/12/17 20:30:58;;;;;;;;;9.00;9.00;;;;;-149.69;15.46;49299.72;5074442;28;28580;-93
2022/12/17 20:33:23;;;;;;;;;0.00;0.00;;;;;-149.69;15.65;49369.03;5075587;28;28456;-93
2022/12/17 20:35:49;;;;;;;;;14.50;14.50;;;;;-149.69;15.20;49331.41;5075555;28;28366;-93
2022/12/17 20:38:14;;;;;;;;;0.00;0.00;;;;;-149.69;15.11;49384.88;5071967;28;29657;-91
2022/12/17 20:40:40;;;;;;;;;0.00;0.00;;;;;-149.69;14.63;49444.28;5074072;28;28504;-93
2022/12/17 20:43:06;;;;;;;;;0.00;0.00;;;;;-149.69;14.58;49446.25;5071704;28;28558;-93
2022/12/17 20:45:31;;;;;;;;;3.00;3.00;;;;;-149.69;14.15;49428.44;5073992;27;28471;-95
2022/12/17 20:47:57;;;;;;;;;0.00;0.00;;;;;-149.69;14.10;49458.16;5076205;28;30216;-93
2022/12/17 20:50:22;;;;;;;;;0.00;0.00;;;;;-149.69;14.25;49428.44;5073193;28;28703;-95
2022/12/17 20:52:47;;;;;;;;;4.00;4.00;;;;;-149.69;14.49;49420.50;5069016;28;29678;-93
2022/12/17 20:55:13;;;;;;;;;0.00;0.00;;;;;-149.69;14.39;49376.94;5074484;28;28685;-94
2022/12/17 20:57:38;;;;;;;;;0.00;0.00;;;;;-149.69;14.27;49436.34;5072846;28;30661;-95
2022/12/17 21:00:04;;;;;;;;;22.50;22.50;;;;;-149.69;14.40;49410.63;5073704;28;28391;-93
2022/12/17 21:02:29;;;;;;;;;0.00;0.00;;;;;-149.69;14.47;49440.31;5069069;28;27856;-94
2022/12/17 21:04:55;;;;;;;;;0.00;0.00;;;;;-149.69;14.35;49424.47;5076719;27;28723;-94
2022/12/17 21:07:20;;;;;;;;;3.75;3.75;;;;;-149.69;14.58;49408.63;5073621;28;29667;-94
2022/12/17 21:09:45;;;;;;;;;0.00;0.00;;;;;-149.69;14.61;49420.50;5072995;28;28494;-96
2022/12/17 21:12:12;;;;;;;;;0.00;0.00;;;;;-149.69;14.69;49426.47;5081723;27;28390;-96
2022/12/17 21:14:38;;;;;;;;;4.00;4.00;;;;;-149.69;14.68;49394.78;5044876;28;28507;-90
2022/12/17 21:17:03;;;;;;;;;0.00;0.00;;;;;-149.69;14.61;49378.94;5071908;28;29697;-93
2022/12/17 21:19:29;;;;;;;;;0.00;0.00;;;;;-149.69;14.54;49400.72;5072395;28;29476;-92
2022/12/17 21:21:54;;;;;;;;;0.00;0.00;;;;;-149.69;14.35;49474.00;5068608;28;28890;-92
2022/12/17 21:24:20;;;;;;;;;0.00;0.00;;;;;-149.69;14.52;49400.72;5068071;28;28470;-90
2022/12/17 21:26:46;;;;;;;;;0.00;0.00;;;;;-149.69;14.53;49416.56;5071328;28;30401;-90
2022/12/17 21:29:12;;;;;;;;;0.00;0.00;;;;;-149.69;14.50;49392.78;5070588;28;28443;-89
2022/12/17 21:31:39;;;;;;;;;1.00;1.00;;;;;-149.69;14.53;49440.31;5079493;28;28680;-90
2022/12/17 21:34:09;;;;;;;;;0.00;0.00;;;;;-149.69;14.58;49400.72;5071447;28;28806;-96
2022/12/17 21:36:37;;;;;;;;;4.00;3.00;;;;;-149.69;14.49;49446.25;5071263;28;30342;-94
2022/12/17 21:39:03;;;;;;;;;1.00;1.00;;;;;-149.69;14.44;49359.13;5072343;28;29817;-94
2022/12/17 21:41:32;;;;;;;;;0.00;0.00;;;;;-149.69;14.39;49406.66;5067790;28;28561;-94
2022/12/17 21:44:00;;;;;;;;;0.00;0.00;;;;;-149.69;14.43;49382.88;5067903;28;27957;-93
2022/12/17 21:46:27;;;;;;;;;0.00;0.00;;;;;-149.69;14.44;49408.63;5069161;28;30085;-95
2022/12/17 21:48:53;;;;;;;;;0.33;0.33;;;;;-149.69;14.47;49384.88;5051977;28;28554;-95
2022/12/17 21:51:20;;;;;;;;;0.00;0.00;;;;;-149.69;14.53;49398.72;5062654;28;28574;-94
2022/12/17 21:53:45;;;;;;;;;1.00;1.00;;;;;-149.69;14.51;49388.81;5071759;28;27998;-95
2022/12/17 21:56:14;;;;;;;;;0.00;0.00;;;;;-149.69;14.50;49382.88;5069813;28;31053;-94
2022/12/17 21:58:40;;;;;;;;;0.00;0.00;;;;;-149.69;14.40;49400.72;5071905;28;29546;-95
2022/12/17 22:01:22;;;;;;;;;0.00;0.00;;;;;-149.69;14.52;49392.78;5077447;28;28372;-95
2022/12/17 22:03:48;;;;;;;;;0.00;0.00;;;;;-149.69;14.54;49452.19;5072943;28;28526;-94
2022/12/17 22:06:16;;;;;;;;;0.00;0.00;;;;;-149.69;14.24;49432.41;5072982;28;30237;-95
2022/12/17 22:08:44;;;;;;;;;0.00;0.00;;;;;-149.69;14.17;49412.59;5073851;28;28501;-94
2022/12/17 22:11:12;;;;;;;;;3.00;3.00;;;;;-149.69;14.30;49428.44;5073619;28;28509;-95
2022/12/17 22:16:23;;;;;;;;;0.00;0.00;;;;;-149.69;15.05;49317.53;5073915;28;28465;-94
2022/12/17 22:18:49;;;;;;;;;0.00;0.00;;;;;-149.69;14.97;49299.72;5072065;28;28695;-94
2022/12/17 22:21:14;;;;;;;;;0.00;0.00;;;;;-149.69;15.26;49270.00;5068857;28;28557;-94
2022/12/17 22:23:40;;;;;;;;;0.00;0.00;;;;;-149.69;15.05;49325.47;5068133;28;27903;-94
2022/12/17 22:26:09;;;;;;;;;0.00;0.00;;;;;-149.69;14.70;49394.78;5088954;27;29823;-94
2022/12/17 22:28:35;;;;;;;;;0.00;0.00;;;;;-149.69;14.57;49416.56;5088320;28;28833;-94
2022/12/17 22:33:50;;;;;;;;;0.00;0.00;;;;;-149.69;14.53;49371.00;5072898;28;28384;-94
2022/12/17 22:36:16;;;;;;;;;0.00;0.00;;;;;-149.69;14.42;49422.50;5090182;28;29873;-95
2022/12/17 22:38:41;;;;;;;;;0.00;0.00;;;;;-149.69;14.67;49418.53;5072565;28;28419;-95
2022/12/17 22:41:07;;;;;;;;;0.00;0.00;;;;;-149.69;14.95;49374.97;5073807;28;28079;-94
2022/12/17 22:43:33;;;;;;;;;0.00;0.00;;;;;-149.69;14.54;49402.69;5081564;27;28437;-94
2022/12/17 22:46:03;;;;;;;;;0.00;0.00;;;;;-149.69;14.89;49351.19;5068505;28;30984;-94
2022/12/17 22:48:30;;;;;;;;;0.00;0.00;;;;;-149.69;14.87;49335.34;5085867;28;29303;-94
2022/12/17 22:50:56;;;;;;;;;0.67;0.67;;;;;-149.69;14.91;49325.47;5068217;28;27928;-94
2022/12/17 22:53:22;;;;;;;;;0.00;0.00;;;;;-149.69;14.90;49299.72;5071558;28;28500;-95
2022/12/17 22:55:48;;;;;;;;;0.00;0.00;;;;;-149.69;15.09;49272.00;5071649;28;29722;-94
2022/12/17 22:58:13;;;;;;;;;0.00;0.00;;;;;-149.69;15.17;49333.38;5088715;27;28715;-95
2022/12/17 23:00:39;;;;;;;;;0.00;0.00;;;;;-149.69;15.08;49323.47;5089166;28;27975;-95
2022/12/17 23:03:04;;;;;;;;;0.00;0.00;;;;;-149.69;15.01;49313.56;5088529;28;28356;-94
2022/12/17 23:05:30;;;;;;;;;9.00;9.00;;;;;-149.69;14.92;49331.41;5088466;28;30914;-95
2022/12/17 23:07:56;;;;;;;;;0.00;0.00;;;;;-149.69;14.90;49301.69;5084878;28;28588;-95
2022/12/17 23:10:22;;;;;;;;;0.00;0.00;;;;;-149.69;14.88;49268.03;5072310;28;28498;-94
2022/12/17 23:12:50;;;;;;;;;0.00;0.00;;;;;-149.69;14.95;49301.69;5068259;28;28470;-94
2022/12/17 23:15:29;;;;;;;;;0.00;0.00;;;;;-149.69;15.03;49258.13;5068004;28;30069;-94
2022/12/17 23:17:57;;;;;;;;;0.00;0.00;;;;;-149.69;15.17;49270.00;5067921;28;28663;-95
2022/12/17 23:20:24;;;;;;;;;0.00;0.00;;;;;-149.69;14.99;49262.09;5052999;28;28527;-95
2022/12/17 23:22:50;;;;;;;;;0.00;0.00;;;;;-149.69;14.89;49315.56;5088923;27;28447;-94
2022/12/17 23:25:16;;;;;;;;;0.00;0.00;;;;;-149.69;14.76;49321.50;5071812;28;29936;-95
2022/12/17 23:27:42;;;;;;;;;0.75;0.75;;;;;-149.69;14.73;49270.00;5069281;28;29026;-94
2022/12/17 23:30:08;;;;;;;;;0.00;0.00;;;;;-149.69;14.62;49359.13;5051917;28;28392;-94
2022/12/17 23:32:34;;;;;;;;;0.67;0.67;;;;;-149.69;14.60;49382.88;5067859;28;27856;-94
2022/12/17 23:34:59;;;;;;;;;0.00;0.00;;;;;-149.69;14.38;49374.97;5064718;28;30680;-94
2022/12/17 23:37:25;;;;;;;;;0.00;0.00;;;;;-149.69;14.43;49319.50;5071352;28;29654;-93
2022/12/17 23:39:50;;;;;;;;;1.00;1.00;;;;;-149.69;14.20;49371.00;5071549;28;28506;-94
2022/12/17 23:42:15;;;;;;;;;0.00;0.00;;;;;-149.69;14.00;49400.72;5071387;28;27947;-94
2022/12/17 23:44:41;;;;;;;;;0.00;0.00;;;;;-149.69;14.29;49333.38;5071036;28;30650;-94
2022/12/17 23:47:06;;;;;;;;;0.00;0.00;;;;;-149.69;14.53;49361.09;5088211;27;28654;-95
2022/12/17 23:49:31;;;;;;;;;0.00;0.00;;;;;-149.69;14.23;49289.81;5087912;27;28572;-94
2022/12/17 23:51:57;;;;;;;;;0.00;0.00;;;;;-149.69;14.62;49273.97;5089351;27;28521;-94
2022/12/17 23:54:23;;;;;;;;;0.00;0.00;;;;;-149.69;14.35;49382.88;5088007;28;30020;-94
2022/12/17 23:56:49;;;;;;;;;0.00;0.00;;;;;-149.69;14.47;49303.66;5071343;28;28651;-94
2022/12/17 23:59:14;;;;;;;;;0.00;0.00;;;;;-149.69;14.50;49378.94;5071031;28;28360;-95
